Time;durP1;ratioP1;P1;durP2;ratioP2;P2;SDS_P1;SDS_P2;PMS_P1;PMS_P2;Temp;Humidity;BMP_temperature;BMP_pressure;BME280_temperature;BME280_humidity;BME280_pressure;Samples;Min_cycle;Max_cycle;Signal;HPM_P1;HPM_P2
2022/03/10 00:01:28;;;;;;;9.68;8.68;;;8.20;38.50;;;;;;5047602;28;20181;-77
2022/03/10 00:03:54;;;;;;;9.10;7.72;;;8.20;38.80;;;;;;5045101;28;20181;-77
2022/03/10 00:06:20;;;;;;;8.83;7.93;;;8.20;38.90;;;;;;5015111;28;20676;-77
2022/03/10 00:08:46;;;;;;;11.00;9.02;;;8.10;38.50;;;;;;5057448;28;20180;-77
2022/03/10 00:11:12;;;;;;;10.03;7.67;;;8.10;39.00;;;;;;5044950;28;20185;-77
2022/03/10 00:13:37;;;;;;;6.87;6.10;;;8.10;38.90;;;;;;5043749;28;20189;-77
2022/03/10 00:16:03;;;;;;;10.63;7.67;;;8.00;38.70;;;;;;5040992;28;20204;-77
2022/03/10 00:18:29;;;;;;;10.77;7.60;;;8.00;39.00;;;;;;5043786;28;20169;-77
2022/03/10 00:20:54;;;;;;;9.37;7.20;;;8.00;39.10;;;;;;5028398;28;20591;-77
2022/03/10 00:23:20;;;;;;;10.50;7.30;;;8.00;39.20;;;;;;5045301;28;20370;-78
2022/03/10 00:25:46;;;;;;;8.90;8.00;;;8.00;38.90;;;;;;5042410;28;20701;-77
2022/03/10 00:28:11;;;;;;;10.73;7.53;;;8.00;38.60;;;;;;5043918;28;20179;-78
2022/03/10 00:30:38;;;;;;;8.98;7.38;;;7.90;38.90;;;;;;5043087;28;20689;-78
2022/03/10 00:33:04;;;;;;;9.73;7.17;;;7.90;39.00;;;;;;5042199;28;20204;-78
2022/03/10 00:35:30;;;;;;;11.60;9.37;;;7.90;39.20;;;;;;5044554;28;20177;-78
2022/03/10 00:37:57;;;;;;;8.97;7.17;;;7.90;38.90;;;;;;5042124;28;20620;-78
2022/03/10 00:40:24;;;;;;;8.93;7.13;;;7.90;39.10;;;;;;5037859;28;20174;-78
2022/03/10 00:42:50;;;;;;;7.53;6.55;;;7.90;39.10;;;;;;5044722;28;20224;-78
2022/03/10 00:45:19;;;;;;;10.03;7.47;;;7.90;39.60;;;;;;5043875;28;20712;-78
2022/03/10 00:47:45;;;;;;;10.45;7.75;;;7.90;39.20;;;;;;5042328;28;20192;-78
2022/03/10 00:50:11;;;;;;;13.48;8.13;;;7.80;39.50;;;;;;5040189;28;20181;-78
2022/03/10 00:52:41;;;;;;;10.90;7.53;;;7.80;40.10;;;;;;5023775;28;20609;-78
2022/03/10 00:55:08;;;;;;;9.90;8.05;;;7.80;40.10;;;;;;5044268;28;20626;-76
2022/03/10 00:57:34;;;;;;;13.05;9.50;;;7.80;40.10;;;;;;5041797;28;20240;-77
2022/03/10 00:59:59;;;;;;;10.30;9.10;;;7.80;40.80;;;;;;5041363;28;20235;-77
2022/03/10 01:02:25;;;;;;;9.50;8.50;;;7.70;40.10;;;;;;5043987;28;20197;-77
2022/03/10 01:04:51;;;;;;;8.83;7.90;;;7.70;40.60;;;;;;5041944;28;20174;-77
2022/03/10 01:07:17;;;;;;;10.80;8.93;;;7.70;40.30;;;;;;5043543;28;20173;-77
2022/03/10 01:09:42;;;;;;;10.53;8.10;;;7.70;40.10;;;;;;5041304;28;20192;-77
2022/03/10 01:12:08;;;;;;;10.20;8.40;;;7.60;40.80;;;;;;5043609;28;20200;-76
2022/03/10 01:14:34;;;;;;;9.47;8.20;;;7.60;41.30;;;;;;5039573;28;20587;-75
2022/03/10 01:17:00;;;;;;;12.40;8.93;;;7.50;41.40;;;;;;5041944;28;20212;-76
2022/03/10 01:19:26;;;;;;;13.50;8.27;;;7.50;41.20;;;;;;5041807;28;20572;-76
2022/03/10 01:21:52;;;;;;;12.40;9.80;;;7.50;40.60;;;;;;5044062;28;20193;-76
2022/03/10 01:24:17;;;;;;;10.90;8.70;;;7.50;40.80;;;;;;5044384;28;20200;-76
2022/03/10 01:26:44;;;;;;;9.82;8.25;;;7.40;40.70;;;;;;5023990;28;20220;-76
2022/03/10 01:29:13;;;;;;;12.63;9.00;;;7.40;41.00;;;;;;5043371;28;20177;-76
2022/03/10 01:31:39;;;;;;;16.25;9.98;;;7.40;41.90;;;;;;5041147;28;20212;-76
2022/03/10 01:34:05;;;;;;;10.98;9.18;;;7.30;41.50;;;;;;5040248;28;20184;-76
2022/03/10 01:36:31;;;;;;;12.27;9.40;;;7.30;41.70;;;;;;5043828;28;20243;-76
2022/03/10 01:38:57;;;;;;;13.17;8.63;;;7.30;41.90;;;;;;5039637;28;20209;-76
2022/03/10 01:41:22;;;;;;;14.90;10.13;;;7.20;42.30;;;;;;5042045;28;20594;-76
2022/03/10 01:44:01;;;;;;;13.13;8.90;;;7.20;41.20;;;;;;5042764;28;20207;-76
2022/03/10 01:46:27;;;;;;;11.45;8.57;;;7.20;42.20;;;;;;5042808;28;20192;-76
2022/03/10 01:48:54;;;;;;;11.93;9.70;;;7.20;41.70;;;;;;5037122;28;20169;-76
2022/03/10 01:51:21;;;;;;;11.07;8.63;;;7.20;42.40;;;;;;5041796;28;20549;-76
2022/03/10 01:53:50;;;;;;;12.10;9.60;;;7.20;42.70;;;;;;5042415;28;20196;-76
2022/03/10 01:56:18;;;;;;;12.00;9.98;;;7.10;43.20;;;;;;5040540;28;20197;-76
2022/03/10 01:58:47;;;;;;;13.00;9.45;;;7.10;43.20;;;;;;5043630;28;20216;-76
2022/03/10 02:01:15;;;;;;;11.48;9.40;;;7.10;43.20;;;;;;5047178;28;20189;-76
2022/03/10 02:03:41;;;;;;;10.38;9.27;;;7.00;43.80;;;;;;5047084;28;20207;-76
2022/03/10 02:06:08;;;;;;;12.23;9.95;;;7.00;42.90;;;;;;5044604;28;20261;-75
2022/03/10 02:11:19;;;;;;;14.45;9.80;;;7.00;42.90;;;;;;5040136;28;20189;-76
2022/03/10 02:13:45;;;;;;;12.70;8.75;;;6.90;43.80;;;;;;5041349;28;20282;-76
2022/03/10 02:19:03;;;;;;;10.65;9.13;;;6.90;44.10;;;;;;5043718;28;20180;-76
2022/03/10 02:21:29;;;;;;;12.95;10.27;;;6.90;43.20;;;;;;5020533;28;20553;-75
2022/03/10 02:23:55;;;;;;;13.13;9.95;;;6.80;43.70;;;;;;5026063;28;20181;-76
2022/03/10 02:26:21;;;;;;;11.00;8.30;;;6.80;43.60;;;;;;5040562;28;20208;-76
2022/03/10 02:28:49;;;;;;;11.00;8.50;;;6.80;43.30;;;;;;5040089;28;20615;-75
2022/03/10 02:31:15;;;;;;;11.65;7.75;;;6.70;42.60;;;;;;5039422;28;20608;-75
2022/03/10 02:33:42;;;;;;;11.20;9.25;;;6.80;42.90;;;;;;5038753;28;20200;-75
2022/03/10 02:36:08;;;;;;;13.77;9.68;;;6.70;42.80;;;;;;5042281;28;20628;-76
2022/03/10 02:38:34;;;;;;;13.13;9.60;;;6.60;43.00;;;;;;5029694;28;20178;-75
2022/03/10 02:41:00;;;;;;;11.50;8.80;;;6.60;42.90;;;;;;5040937;28;20625;-75
2022/03/10 02:43:25;;;;;;;12.50;9.90;;;6.60;43.40;;;;;;5041536;28;20193;-74
2022/03/10 02:45:52;;;;;;;12.00;8.53;;;6.60;42.80;;;;;;5039181;28;20592;-75
2022/03/10 02:48:18;;;;;;;13.60;9.65;;;6.60;43.00;;;;;;5041561;28;20173;-75
2022/03/10 02:50:45;;;;;;;11.77;8.95;;;6.50;43.50;;;;;;5039186;28;20554;-76
2022/03/10 02:53:11;;;;;;;11.70;9.35;;;6.50;43.70;;;;;;5041121;28;20206;-75
2022/03/10 02:55:40;;;;;;;11.52;8.90;;;6.40;42.90;;;;;;5041020;28;20174;-75
2022/03/10 02:58:05;;;;;;;10.98;9.63;;;6.40;43.70;;;;;;5039317;28;20260;-77
2022/03/10 03:00:31;;;;;;;12.47;9.77;;;6.40;43.90;;;;;;5001158;28;20647;-78
2022/03/10 03:02:57;;;;;;;10.73;8.43;;;6.40;44.30;;;;;;5037761;28;20194;-77
2022/03/10 03:05:23;;;;;;;11.17;8.93;;;6.40;43.60;;;;;;5035506;28;20606;-77
2022/03/10 03:07:49;;;;;;;10.73;8.43;;;6.40;44.20;;;;;;5040961;28;20177;-77
2022/03/10 03:10:15;;;;;;;15.70;10.40;;;6.30;44.00;;;;;;5039479;28;20184;-77
2022/03/10 03:12:45;;;;;;;14.80;9.70;;;6.30;44.70;;;;;;5045232;28;20565;-77
2022/03/10 03:15:11;;;;;;;11.90;8.75;;;6.30;45.00;;;;;;5051197;28;20571;-76
2022/03/10 03:17:37;;;;;;;13.47;10.70;;;6.30;44.80;;;;;;5038126;28;20212;-77
2022/03/10 03:20:04;;;;;;;12.13;10.33;;;6.20;45.40;;;;;;5040923;28;20553;-77
2022/03/10 03:22:31;;;;;;;15.48;11.20;;;6.20;45.70;;;;;;5038798;28;20611;-77
2022/03/10 03:24:57;;;;;;;13.00;10.68;;;6.20;46.20;;;;;;5040886;28;20251;-77
2022/03/10 03:27:23;;;;;;;13.27;11.10;;;6.20;45.70;;;;;;5041572;28;20276;-77
2022/03/10 03:29:48;;;;;;;12.10;10.17;;;6.20;46.10;;;;;;5021443;28;20580;-77
2022/03/10 03:32:14;;;;;;;16.43;11.70;;;6.20;45.70;;;;;;5040915;28;20608;-77
2022/03/10 03:34:41;;;;;;;12.30;9.75;;;6.20;46.50;;;;;;5038820;28;20267;-77
2022/03/10 03:37:07;;;;;;;13.63;9.75;;;6.20;45.30;;;;;;5039543;28;20220;-77
2022/03/10 03:39:33;;;;;;;13.35;10.70;;;6.20;45.10;;;;;;5039829;28;20188;-77
2022/03/10 03:41:59;;;;;;;12.60;10.10;;;6.20;45.80;;;;;;5040701;28;20261;-77
2022/03/10 03:44:25;;;;;;;13.20;10.03;;;6.10;46.20;;;;;;5038647;28;20189;-77
2022/03/10 03:46:51;;;;;;;13.60;10.50;;;6.10;46.30;;;;;;5024669;28;20211;-77
2022/03/10 03:49:16;;;;;;;10.60;9.40;;;6.00;46.90;;;;;;5041621;28;20703;-78
2022/03/10 03:51:42;;;;;;;14.15;10.32;;;6.10;45.30;;;;;;5045632;28;20205;-77
2022/03/10 03:54:08;;;;;;;11.17;9.30;;;6.10;46.10;;;;;;5027321;28;20176;-77
2022/03/10 03:56:37;;;;;;;13.03;11.03;;;6.00;46.00;;;;;;5045179;28;20189;-77
2022/03/10 03:59:03;;;;;;;11.45;10.25;;;6.00;46.50;;;;;;5043754;28;20181;-77
2022/03/10 04:01:29;;;;;;;11.65;9.40;;;6.00;46.90;;;;;;5041045;28;20174;-77
2022/03/10 04:03:55;;;;;;;14.00;10.30;;;6.00;46.50;;;;;;5041098;28;20194;-77
2022/03/10 04:06:22;;;;;;;13.27;9.60;;;6.00;47.70;;;;;;5044201;28;20687;-77
2022/03/10 04:08:48;;;;;;;12.07;10.30;;;6.00;46.30;;;;;;5042467;28;20178;-77
2022/03/10 04:11:15;;;;;;;15.40;11.10;;;6.00;47.20;;;;;;5041925;28;20246;-77
2022/03/10 04:13:41;;;;;;;11.80;10.10;;;6.00;47.70;;;;;;5043338;28;20289;-77
2022/03/10 04:16:07;;;;;;;14.90;11.80;;;5.90;47.10;;;;;;5041540;28;20252;-77
2022/03/10 04:18:32;;;;;;;12.20;9.80;;;5.90;46.50;;;;;;5045485;28;20180;-76
2022/03/10 04:20:59;;;;;;;12.13;9.80;;;5.90;46.20;;;;;;5040661;28;20576;-76
2022/03/10 04:23:28;;;;;;;14.05;10.30;;;6.00;47.50;;;;;;5043395;28;20599;-77
2022/03/10 04:25:54;;;;;;;15.13;10.60;;;6.00;46.90;;;;;;5042647;28;20282;-77
2022/03/10 04:28:20;;;;;;;11.85;8.82;;;6.00;46.30;;;;;;5027186;28;20507;-77
2022/03/10 04:30:46;;;;;;;11.43;9.65;;;5.90;46.70;;;;;;5046258;28;20174;-77
2022/03/10 04:33:12;;;;;;;12.30;9.40;;;5.90;47.00;;;;;;5045638;28;20589;-77
2022/03/10 04:35:38;;;;;;;13.93;10.70;;;5.90;46.30;;;;;;5029198;28;20178;-77
2022/03/10 04:38:03;;;;;;;13.80;9.80;;;5.90;46.30;;;;;;5047620;28;20212;-76
2022/03/10 04:40:30;;;;;;;13.70;8.85;;;5.90;47.20;;;;;;5044302;28;20177;-76
2022/03/10 04:42:56;;;;;;;12.27;9.73;;;5.80;46.40;;;;;;5049030;28;20683;-77
2022/03/10 04:45:22;;;;;;;14.60;9.67;;;5.90;46.40;;;;;;5045112;28;20612;-76
2022/03/10 04:47:49;;;;;;;11.30;8.13;;;5.80;46.10;;;;;;5044557;28;20201;-76
2022/03/10 04:50:16;;;;;;;12.40;8.87;;;5.80;46.60;;;;;;5020600;28;20650;-76
2022/03/10 04:52:43;;;;;;;10.82;8.52;;;5.80;46.00;;;;;;5041029;28;20193;-77
2022/03/10 04:55:10;;;;;;;12.30;8.90;;;5.80;46.10;;;;;;5043438;28;20184;-77
2022/03/10 04:57:36;;;;;;;10.23;9.15;;;5.80;46.60;;;;;;5039579;28;20201;-76
2022/03/10 05:00:11;;;;;;;12.20;8.90;;;5.70;47.50;;;;;;5042809;28;20176;-77
2022/03/10 05:02:41;;;;;;;13.50;8.95;;;5.70;46.30;;;;;;5039345;28;20672;-76
2022/03/10 05:05:08;;;;;;;10.65;9.55;;;5.80;46.90;;;;;;5043352;28;20628;-77
2022/03/10 05:07:34;;;;;;;11.68;8.88;;;5.70;46.80;;;;;;5045530;28;20184;-77
2022/03/10 05:10:00;;;;;;;12.68;9.40;;;5.70;47.70;;;;;;5043558;28;20177;-77
2022/03/10 05:12:26;;;;;;;9.38;8.05;;;5.70;47.20;;;;;;5024318;28;20198;-76
2022/03/10 05:14:52;;;;;;;10.60;8.67;;;5.70;46.20;;;;;;5044101;28;20569;-75
2022/03/10 05:17:18;;;;;;;13.65;10.30;;;5.70;47.60;;;;;;5041086;28;20573;-75
2022/03/10 05:19:44;;;;;;;11.37;9.60;;;5.60;48.60;;;;;;5042437;28;20169;-75
2022/03/10 05:22:09;;;;;;;10.17;8.30;;;5.60;47.30;;;;;;5043253;28;20294;-75
2022/03/10 05:24:36;;;;;;;16.83;9.27;;;5.70;47.10;;;;;;5039636;28;20188;-75
2022/03/10 05:27:02;;;;;;;11.73;8.50;;;5.60;47.10;;;;;;5042988;28;20262;-75
2022/03/10 05:29:28;;;;;;;12.17;9.80;;;5.60;47.30;;;;;;5039688;28;20185;-75
2022/03/10 05:31:54;;;;;;;10.38;8.38;;;5.60;47.50;;;;;;5041460;28;20661;-75
2022/03/10 05:34:20;;;;;;;12.37;9.07;;;5.60;47.50;;;;;;5042223;28;20266;-75
2022/03/10 05:36:45;;;;;;;11.40;9.20;;;5.60;47.10;;;;;;5040982;28;20197;-74
2022/03/10 05:39:11;;;;;;;10.43;7.77;;;5.60;46.90;;;;;;5038079;28;20622;-76
2022/03/10 05:41:37;;;;;;;13.53;9.10;;;5.60;46.90;;;;;;5039202;28;20178;-75
2022/03/10 05:44:03;;;;;;;11.20;7.90;;;5.60;48.20;;;;;;5044680;28;20590;-75
2022/03/10 05:46:29;;;;;;;10.48;9.07;;;5.60;47.60;;;;;;5043798;28;20200;-74
2022/03/10 05:48:54;;;;;;;14.00;10.73;;;5.60;47.50;;;;;;5040246;28;20190;-75
2022/03/10 05:51:20;;;;;;;11.80;9.27;;;5.60;48.60;;;;;;5024246;28;20189;-75
2022/03/10 05:53:49;;;;;;;14.18;11.73;;;5.60;48.60;;;;;;5024616;28;20197;-76
2022/03/10 05:56:15;;;;;;;12.95;9.93;;;5.60;49.00;;;;;;5040637;28;20193;-77
2022/03/10 05:58:41;;;;;;;14.02;10.63;;;5.60;48.40;;;;;;5042655;28;20231;-77
2022/03/10 06:01:07;;;;;;;12.60;9.20;;;5.60;49.80;;;;;;5038968;28;20185;-75
2022/03/10 06:03:33;;;;;;;11.13;9.02;;;5.60;48.40;;;;;;5041531;28;20235;-75
2022/03/10 06:05:59;;;;;;;12.32;10.73;;;5.60;49.50;;;;;;5040656;28;20178;-76
2022/03/10 06:08:25;;;;;;;13.80;9.33;;;5.60;48.70;;;;;;5041511;28;20649;-76
2022/03/10 06:10:51;;;;;;;11.65;8.90;;;5.70;49.40;;;;;;5040563;28;20259;-76
2022/03/10 06:13:17;;;;;;;12.33;10.03;;;5.70;48.70;;;;;;5038980;28;20285;-76
2022/03/10 06:15:43;;;;;;;13.60;9.90;;;5.70;49.40;;;;;;5043605;28;20563;-76
2022/03/10 06:18:09;;;;;;;11.15;8.57;;;5.70;48.60;;;;;;5039693;28;20624;-76
2022/03/10 06:20:35;;;;;;;10.33;8.80;;;5.70;48.60;;;;;;5047595;28;20196;-75
2022/03/10 06:23:01;;;;;;;11.07;8.97;;;5.70;49.30;;;;;;5040628;28;20248;-75
2022/03/10 06:25:27;;;;;;;12.17;9.30;;;5.70;48.60;;;;;;5023229;28;20280;-75
2022/03/10 06:27:52;;;;;;;12.57;9.15;;;5.80;48.50;;;;;;5041496;28;20602;-75
2022/03/10 06:30:18;;;;;;;9.77;8.53;;;5.80;48.40;;;;;;5039395;28;20197;-76
2022/03/10 06:32:44;;;;;;;12.60;10.00;;;5.80;48.40;;;;;;5042907;28;20279;-75
2022/03/10 06:35:11;;;;;;;14.63;9.93;;;5.80;48.20;;;;;;5039119;28;20642;-75
2022/03/10 06:37:36;;;;;;;11.80;8.68;;;5.80;48.50;;;;;;5040149;28;20206;-75
2022/03/10 06:40:03;;;;;;;9.50;7.77;;;5.80;48.30;;;;;;5039841;28;20548;-75
2022/03/10 06:42:30;;;;;;;11.15;9.00;;;5.90;48.00;;;;;;5039256;28;20603;-75
2022/03/10 06:44:56;;;;;;;11.75;9.27;;;5.90;48.80;;;;;;5025029;28;20192;-75
2022/03/10 06:47:22;;;;;;;11.50;9.53;;;5.90;49.00;;;;;;5034605;28;20539;-75
2022/03/10 06:49:48;;;;;;;11.40;9.40;;;5.90;48.60;;;;;;5039183;28;20568;-75
2022/03/10 06:52:13;;;;;;;13.43;10.95;;;6.00;48.10;;;;;;5042007;28;20196;-74
2022/03/10 06:54:41;;;;;;;14.63;9.13;;;6.00;48.60;;;;;;5024193;28;20228;-75
2022/03/10 06:57:08;;;;;;;9.18;8.05;;;6.10;48.50;;;;;;5042367;28;20620;-75
2022/03/10 06:59:34;;;;;;;8.75;7.50;;;6.10;48.40;;;;;;5043033;28;20192;-75
2022/03/10 07:02:00;;;;;;;11.80;9.85;;;6.10;48.60;;;;;;5036103;28;20714;-75
2022/03/10 07:04:26;;;;;;;12.25;10.68;;;6.20;49.60;;;;;;5029882;28;21266;-75
2022/03/10 07:06:52;;;;;;;15.23;11.32;;;6.20;50.10;;;;;;5039528;28;20565;-74
2022/03/10 07:09:19;;;;;;;11.75;9.95;;;6.30;49.60;;;;;;5040902;28;20629;-73
2022/03/10 07:11:45;;;;;;;11.27;8.02;;;6.40;49.60;;;;;;5039602;28;20257;-73
2022/03/10 07:14:11;;;;;;;10.95;9.60;;;6.50;49.30;;;;;;5040368;28;20178;-74
2022/03/10 07:16:36;;;;;;;14.80;9.90;;;6.60;49.00;;;;;;5041275;28;20608;-73
2022/03/10 07:19:03;;;;;;;12.13;10.10;;;6.60;49.20;;;;;;5042231;28;20183;-74
2022/03/10 07:21:28;;;;;;;12.52;9.60;;;6.70;49.00;;;;;;5039175;28;21177;-73
2022/03/10 07:23:54;;;;;;;9.63;7.83;;;6.70;49.60;;;;;;5027032;28;20196;-74
2022/03/10 07:26:21;;;;;;;14.03;9.10;;;6.80;48.90;;;;;;5044661;28;20581;-74
2022/03/10 07:28:47;;;;;;;13.50;9.27;;;6.90;49.00;;;;;;5043349;28;20646;-73
2022/03/10 07:31:13;;;;;;;11.30;9.68;;;7.00;48.70;;;;;;5044244;28;20541;-73
2022/03/10 07:33:38;;;;;;;13.07;9.60;;;7.10;49.20;;;;;;5041692;28;20267;-74
2022/03/10 07:36:04;;;;;;;11.87;8.53;;;7.10;48.80;;;;;;5049018;28;20177;-73
2022/03/10 07:38:30;;;;;;;12.60;9.77;;;7.20;48.70;;;;;;5039312;28;20521;-74
2022/03/10 07:40:57;;;;;;;11.80;9.17;;;7.30;48.80;;;;;;5038712;28;20641;-73
2022/03/10 07:43:23;;;;;;;13.73;10.45;;;7.40;48.60;;;;;;5044041;28;20190;-73
2022/03/10 07:45:50;;;;;;;12.63;9.93;;;7.40;48.60;;;;;;5044234;28;20566;-73
2022/03/10 07:48:17;;;;;;;14.00;10.20;;;7.50;48.60;;;;;;5021882;28;20701;-73
2022/03/10 07:50:43;;;;;;;12.88;10.20;;;7.60;48.70;;;;;;5042590;28;20588;-73
2022/03/10 07:53:09;;;;;;;12.00;9.97;;;7.70;48.60;;;;;;5043138;28;20213;-73
2022/03/10 07:55:34;;;;;;;14.53;10.07;;;7.90;48.50;;;;;;5043878;28;20642;-73
2022/03/10 07:58:00;;;;;;;14.10;10.87;;;7.80;48.40;;;;;;5043075;28;20205;-73
2022/03/10 08:00:26;;;;;;;15.63;11.53;;;8.00;48.30;;;;;;5042588;28;20180;-73
2022/03/10 08:02:52;;;;;;;14.90;10.70;;;8.20;48.30;;;;;;5042245;28;20240;-74
2022/03/10 08:05:17;;;;;;;14.93;11.70;;;8.70;48.50;;;;;;5042142;28;20235;-75
2022/03/10 08:07:43;;;;;;;16.23;12.03;;;9.10;47.90;;;;;;5043728;28;20177;-74
2022/03/10 08:10:09;;;;;;;12.63;9.73;;;9.70;47.40;;;;;;5041855;28;20174;-74
2022/03/10 08:12:35;;;;;;;13.65;10.75;;;10.40;47.20;;;;;;5047458;28;20207;-75
2022/03/10 08:15:02;;;;;;;11.77;9.00;;;11.20;47.70;;;;;;5043586;28;20219;-75
2022/03/10 08:17:28;;;;;;;12.15;10.50;;;11.90;47.70;;;;;;5041137;28;20231;-75
2022/03/10 08:19:55;;;;;;;15.57;10.70;;;12.60;47.20;;;;;;5043304;28;20871;-74
2022/03/10 08:22:22;;;;;;;15.63;10.23;;;13.40;46.50;;;;;;5041277;28;20686;-75
2022/03/10 08:24:48;;;;;;;10.33;9.07;;;14.20;47.20;;;;;;5042771;28;20568;-75
2022/03/10 08:27:15;;;;;;;13.00;11.50;;;15.00;47.60;;;;;;5039799;28;20589;-76
2022/03/10 08:29:42;;;;;;;11.17;9.97;;;15.70;43.50;;;;;;5036103;28;20575;-76
2022/03/10 08:32:08;;;;;;;9.80;8.80;;;16.30;44.90;;;;;;5044930;28;20614;-75
2022/03/10 08:34:35;;;;;;;12.57;10.67;;;16.90;45.30;;;;;;5038080;28;21184;-75
2022/03/10 08:37:01;;;;;;;10.37;8.50;;;17.40;44.20;;;;;;5045314;28;20615;-75
2022/03/10 08:39:27;;;;;;;13.13;10.23;;;18.00;44.40;;;;;;5025343;28;20585;-74
2022/03/10 08:41:53;;;;;;;10.07;8.87;;;18.40;44.20;;;;;;5043072;28;20571;-74
2022/03/10 08:44:20;;;;;;;11.47;9.80;;;18.80;44.20;;;;;;5039916;28;20572;-73
2022/03/10 08:46:46;;;;;;;14.63;11.23;;;19.30;41.70;;;;;;5043189;28;20556;-74
2022/03/10 08:49:13;;;;;;;12.83;10.10;;;19.40;39.20;;;;;;5026307;28;21250;-74
2022/03/10 08:51:39;;;;;;;14.57;11.37;;;19.20;38.60;;;;;;5037136;28;20642;-74
2022/03/10 08:54:05;;;;;;;15.33;11.43;;;19.20;39.20;;;;;;5040701;28;21438;-74
2022/03/10 08:56:31;;;;;;;12.10;10.00;;;19.30;39.70;;;;;;5041715;28;20624;-74
2022/03/10 08:58:57;;;;;;;12.90;10.10;;;19.40;39.50;;;;;;5043724;28;20563;-74
2022/03/10 09:01:23;;;;;;;14.33;10.90;;;19.50;39.60;;;;;;5044128;28;20575;-74
2022/03/10 09:03:49;;;;;;;14.00;11.90;;;19.70;38.30;;;;;;5045242;28;20687;-74
2022/03/10 09:06:16;;;;;;;13.60;11.40;;;19.80;38.20;;;;;;5040570;28;20255;-75
2022/03/10 09:08:44;;;;;;;10.50;9.50;;;20.00;38.80;;;;;;5040846;28;20238;-74
2022/03/10 09:11:10;;;;;;;13.93;11.93;;;20.40;39.60;;;;;;5041230;28;20600;-73
2022/03/10 09:13:36;;;;;;;13.03;11.43;;;20.90;39.30;;;;;;5043704;28;21217;-75
2022/03/10 09:16:02;;;;;;;11.20;9.90;;;21.00;38.20;;;;;;5035487;28;20688;-74
2022/03/10 09:18:28;;;;;;;10.57;9.50;;;21.10;39.20;;;;;;5042562;28;20590;-74
2022/03/10 09:20:54;;;;;;;14.83;10.67;;;21.50;40.00;;;;;;5040804;28;20592;-75
2022/03/10 09:23:19;;;;;;;15.07;10.63;;;21.90;39.30;;;;;;5043654;28;20220;-74
2022/03/10 09:25:45;;;;;;;11.97;10.87;;;22.10;37.80;;;;;;5046169;28;20623;-75
2022/03/10 09:28:12;;;;;;;15.60;13.20;;;22.50;39.60;;;;;;5035167;28;20235;-74
2022/03/10 09:30:39;;;;;;;13.00;11.80;;;22.60;35.40;;;;;;5041396;28;20560;-74
2022/03/10 09:33:05;;;;;;;12.40;11.10;;;22.50;36.10;;;;;;5025697;28;20635;-74
2022/03/10 09:35:31;;;;;;;14.10;12.70;;;22.40;36.10;;;;;;4992677;28;20710;-74
2022/03/10 09:37:57;;;;;;;14.87;13.30;;;21.70;33.90;;;;;;5021099;28;20704;-75
2022/03/10 09:40:23;;;;;;;14.23;12.43;;;21.20;33.00;;;;;;5042301;28;21350;-75
2022/03/10 09:42:49;;;;;;;14.33;12.87;;;21.00;34.60;;;;;;5040790;28;20608;-75
2022/03/10 09:45:18;;;;;;;13.00;11.43;;;20.90;34.20;;;;;;5040624;28;21252;-75
2022/03/10 09:47:44;;;;;;;14.20;12.73;;;21.10;34.80;;;;;;5038917;28;20623;-75
2022/03/10 09:50:15;;;;;;;15.30;13.60;;;21.10;34.30;;;;;;5031986;28;21292;-75
2022/03/10 09:52:43;;;;;;;13.87;12.37;;;20.70;33.20;;;;;;5039609;28;20673;-75
2022/03/10 09:55:10;;;;;;;17.10;13.93;;;20.70;34.20;;;;;;5039051;28;20578;-76
2022/03/10 09:57:40;;;;;;;13.37;11.97;;;20.70;34.60;;;;;;5039743;28;20639;-76
2022/03/10 10:00:08;;;;;;;14.10;11.17;;;20.90;35.00;;;;;;5035190;28;21255;-76
2022/03/10 10:02:34;;;;;;;16.63;11.97;;;21.20;35.30;;;;;;5042130;28;20650;-75
2022/03/10 10:05:00;;;;;;;12.67;11.30;;;21.40;35.40;;;;;;5041894;28;20638;-75
2022/03/10 10:07:27;;;;;;;14.17;12.23;;;21.40;35.10;;;;;;5041309;28;20978;-75
2022/03/10 10:09:56;;;;;;;12.40;11.10;;;21.60;34.20;;;;;;5043282;28;20687;-75
2022/03/10 10:12:27;;;;;;;12.67;11.47;;;21.60;34.70;;;;;;5041195;28;20614;-75
2022/03/10 10:14:55;;;;;;;11.63;10.43;;;21.90;35.10;;;;;;5039972;28;20640;-75
2022/03/10 10:17:28;;;;;;;11.93;10.70;;;22.00;34.50;;;;;;5039200;28;20669;-75
2022/03/10 10:19:56;;;;;;;14.93;12.80;;;21.90;33.00;;;;;;5033901;28;20597;-76
2022/03/10 10:22:25;;;;;;;14.40;11.70;;;22.00;33.80;;;;;;5043376;28;20654;-76
2022/03/10 10:24:59;;;;;;;12.70;11.23;;;22.00;33.60;;;;;;5042031;28;21053;-76
2022/03/10 10:27:33;;;;;;;14.47;13.00;;;22.00;33.20;;;;;;5039224;28;20673;-76
2022/03/10 10:30:02;;;;;;;13.30;11.97;;;21.80;32.20;;;;;;5044562;28;20576;-76
2022/03/10 10:32:44;;;;;;;12.93;11.10;;;21.80;33.40;;;;;;5037263;28;20626;-76
2022/03/10 10:35:20;;;;;;;11.03;9.93;;;21.60;33.00;;;;;;5035889;28;20576;-76
2022/03/10 10:37:49;;;;;;;14.43;12.90;;;21.80;34.60;;;;;;5032851;28;20669;-76
2022/03/10 10:40:31;;;;;;;12.23;10.20;;;21.70;32.80;;;;;;5020987;28;20579;-76
2022/03/10 10:42:57;;;;;;;13.50;11.53;;;21.50;32.70;;;;;;5042171;28;20598;-76
2022/03/10 10:45:38;;;;;;;12.20;10.67;;;21.50;32.90;;;;;;5037237;28;20615;-76
2022/03/10 10:48:10;;;;;;;11.53;10.40;;;21.50;33.50;;;;;;5039973;28;20585;-76
2022/03/10 10:50:39;;;;;;;12.13;10.90;;;21.60;33.90;;;;;;5034858;28;20967;-76
2022/03/10 10:53:05;;;;;;;12.93;10.57;;;21.70;33.50;;;;;;5041493;28;21225;-76
2022/03/10 10:55:45;;;;;;;12.03;10.70;;;21.70;33.50;;;;;;5036946;28;20921;-76
2022/03/10 10:58:14;;;;;;;11.63;8.90;;;21.80;33.70;;;;;;5035089;28;20631;-76
2022/03/10 11:00:42;;;;;;;12.10;10.80;;;21.90;33.60;;;;;;5039329;28;20586;-76
2022/03/10 11:03:36;;;;;;;9.63;8.60;;;21.80;32.80;;;;;;5040784;28;20654;-77
2022/03/10 11:06:01;;;;;;;14.40;10.73;;;22.00;34.10;;;;;;5023084;28;20633;-77
2022/03/10 11:08:28;;;;;;;12.03;10.20;;;22.20;33.20;;;;;;5028750;28;20579;-78
2022/03/10 11:10:54;;;;;;;10.40;9.40;;;22.40;33.00;;;;;;5041369;28;20582;-77
2022/03/10 11:13:23;;;;;;;10.17;9.23;;;22.40;33.00;;;;;;5034635;28;21254;-77
2022/03/10 11:15:51;;;;;;;12.10;10.90;;;22.50;32.50;;;;;;5038719;28;20577;-78
2022/03/10 11:18:21;;;;;;;11.07;9.90;;;22.40;32.00;;;;;;5037115;28;20999;-77
2022/03/10 11:20:50;;;;;;;12.27;10.60;;;22.30;31.60;;;;;;5038658;28;20680;-76
2022/03/10 11:23:32;;;;;;;10.57;9.57;;;22.10;31.20;;;;;;5041457;28;20961;-76
2022/03/10 11:26:23;;;;;;;11.00;9.83;;;22.10;32.00;;;;;;5039310;28;20564;-77
2022/03/10 11:28:52;;;;;;;10.97;9.73;;;22.00;31.30;;;;;;5024471;28;20900;-76
2022/03/10 11:31:19;;;;;;;11.00;9.90;;;22.00;31.00;;;;;;5037842;28;20671;-76
2022/03/10 11:33:45;;;;;;;12.30;9.60;;;22.00;31.70;;;;;;5039644;28;20600;-77
2022/03/10 11:36:25;;;;;;;9.30;8.33;;;22.00;30.80;;;;;;5040827;28;20713;-77
2022/03/10 11:39:02;;;;;;;9.90;8.90;;;22.00;30.90;;;;;;5038767;28;20599;-78
2022/03/10 11:41:50;;;;;;;10.30;8.90;;;22.10;31.40;;;;;;5037678;28;20575;-78
2022/03/10 11:44:20;;;;;;;9.57;8.67;;;22.10;31.30;;;;;;5036424;28;20576;-78
2022/03/10 11:46:57;;;;;;;11.83;8.93;;;22.20;31.90;;;;;;5016469;28;20611;-78
2022/03/10 11:49:27;;;;;;;9.30;7.90;;;22.20;31.10;;;;;;5039062;28;20572;-78
2022/03/10 11:51:56;;;;;;;10.27;9.23;;;22.20;31.30;;;;;;5018229;28;20588;-79
2022/03/10 11:54:24;;;;;;;9.43;8.33;;;22.00;30.00;;;;;;5035556;28;20579;-78
2022/03/10 11:56:50;;;;;;;11.10;9.90;;;21.70;29.80;;;;;;5042236;28;20730;-79
2022/03/10 11:59:27;;;;;;;11.13;9.47;;;21.30;29.50;;;;;;5042082;28;20621;-78
2022/03/10 12:01:55;;;;;;;10.20;8.80;;;21.00;29.50;;;;;;5038220;28;20185;-77
2022/03/10 12:04:21;;;;;;;9.33;8.30;;;20.90;30.60;;;;;;5038926;28;20577;-77
2022/03/10 12:06:59;;;;;;;11.70;10.10;;;20.80;30.20;;;;;;5036556;28;20610;-77
2022/03/10 12:09:33;;;;;;;10.10;8.63;;;20.50;29.80;;;;;;5042916;28;20189;-77
2022/03/10 12:12:13;;;;;;;10.30;8.33;;;20.50;30.00;;;;;;5022086;28;20628;-77
2022/03/10 12:14:39;;;;;;;11.63;10.03;;;20.30;29.70;;;;;;5044226;28;20686;-77
2022/03/10 12:17:05;;;;;;;9.50;8.57;;;20.20;29.70;;;;;;5041043;28;20722;-77
2022/03/10 12:20:20;;;;;;;8.07;7.23;;;20.20;29.80;;;;;;5044258;28;20583;-77
2022/03/10 12:23:09;;;;;;;10.80;8.40;;;20.00;29.20;;;;;;5009951;28;20623;-78
2022/03/10 12:25:40;;;;;;;11.70;8.97;;;20.00;29.30;;;;;;5035120;28;20952;-76
2022/03/10 12:28:24;;;;;;;9.70;8.60;;;19.90;29.70;;;;;;5040613;28;20660;-77
2022/03/10 12:31:19;;;;;;;12.17;7.43;;;19.70;29.50;;;;;;5030487;28;20609;-79
2022/03/10 12:33:54;;;;;;;8.70;6.53;;;19.80;30.00;;;;;;5035787;28;20991;-78
2022/03/10 12:36:34;;;;;;;7.70;6.90;;;20.00;30.40;;;;;;5041921;28;20586;-78
2022/03/10 12:39:08;;;;;;;8.73;6.90;;;20.00;30.00;;;;;;5044260;28;20580;-78
2022/03/10 12:41:43;;;;;;;6.77;6.17;;;19.90;29.30;;;;;;5045331;28;20567;-77
2022/03/10 12:44:11;;;;;;;7.63;5.90;;;19.80;29.00;;;;;;5040562;28;20559;-77
2022/03/10 12:46:41;;;;;;;5.20;4.30;;;19.70;29.40;;;;;;5041799;28;20604;-78
2022/03/10 12:49:31;;;;;;;6.80;6.10;;;19.80;30.00;;;;;;5025178;28;20593;-77